sensor_id;sensor_type;location;lat;lon;timestamp;temperature;humidity
702;DHT22;334;48.808;9.222;2023-02-08T00:00:03;3.10;1.00
702;DHT22;334;48.808;9.222;2023-02-08T00:01:06;3.20;1.00
702;DHT22;334;48.808;9.222;2023-02-08T00:02:09;3.10;1.00
702;DHT22;334;48.808;9.222;2023-02-08T00:03:12;2.90;1.00
702;DHT22;334;48.808;9.222;2023-02-08T00:04:16;3.10;1.00
702;DHT22;334;48.808;9.222;2023-02-08T00:05:18;3.10;1.00
702;DHT22;334;48.808;9.222;2023-02-08T00:06:20;3.10;1.00
702;DHT22;334;48.808;9.222;2023-02-08T00:07:22;2.70;1.00
702;DHT22;334;48.808;9.222;2023-02-08T00:08:24;3.10;1.00
702;DHT22;334;48.808;9.222;2023-02-08T00:09:28;3.10;1.00
702;DHT22;334;48.808;9.222;2023-02-08T00:10:31;2.70;1.00
702;DHT22;334;48.808;9.222;2023-02-08T00:11:33;3.10;1.00
702;DHT22;334;48.808;9.222;2023-02-08T00:12:36;3.10;1.00
702;DHT22;334;48.808;9.222;2023-02-08T00:13:39;3.10;1.00
702;DHT22;334;48.808;9.222;2023-02-08T00:14:42;3.10;1.00
702;DHT22;334;48.808;9.222;2023-02-08T00:15:45;3.10;1.00
702;DHT22;334;48.808;9.222;2023-02-08T00:16:47;2.80;1.00
702;DHT22;334;48.808;9.222;2023-02-08T00:17:49;3.10;1.00
702;DHT22;334;48.808;9.222;2023-02-08T00:18:51;3.10;1.00
702;DHT22;334;48.808;9.222;2023-02-08T00:19:54;3.10;1.00
702;DHT22;334;48.808;9.222;2023-02-08T00:20:56;3.10;1.00
702;DHT22;334;48.808;9.222;2023-02-08T00:21:58;3.10;1.00
702;DHT22;334;48.808;9.222;2023-02-08T00:23:00;3.10;1.00
702;DHT22;334;48.808;9.222;2023-02-08T00:24:01;3.00;1.00
702;DHT22;334;48.808;9.222;2023-02-08T00:25:05;3.10;1.00
702;DHT22;334;48.808;9.222;2023-02-08T00:26:07;3.00;1.00
702;DHT22;334;48.808;9.222;2023-02-08T00:27:09;3.10;1.00
702;DHT22;334;48.808;9.222;2023-02-08T00:28:14;3.00;1.00
702;DHT22;334;48.808;9.222;2023-02-08T00:29:16;3.10;1.00
702;DHT22;334;48.808;9.222;2023-02-08T00:30:26;3.10;1.00
702;DHT22;334;48.808;9.222;2023-02-08T00:31:28;3.10;1.00
702;DHT22;334;48.808;9.222;2023-02-08T00:32:30;3.00;1.00
702;DHT22;334;48.808;9.222;2023-02-08T00:33:32;2.90;1.00
702;DHT22;334;48.808;9.222;2023-02-08T00:34:34;2.90;1.00
702;DHT22;334;48.808;9.222;2023-02-08T00:35:36;2.90;1.00
702;DHT22;334;48.808;9.222;2023-02-08T00:36:38;2.90;1.00
702;DHT22;334;48.808;9.222;2023-02-08T00:37:40;2.50;1.00
702;DHT22;334;48.808;9.222;2023-02-08T00:38:42;2.80;1.00
702;DHT22;334;48.808;9.222;2023-02-08T00:39:44;2.80;1.00
702;DHT22;334;48.808;9.222;2023-02-08T00:40:46;2.80;1.00
702;DHT22;334;48.808;9.222;2023-02-08T00:41:48;2.70;1.00
702;DHT22;334;48.808;9.222;2023-02-08T00:42:51;2.70;1.00
702;DHT22;334;48.808;9.222;2023-02-08T00:43:53;2.70;1.00
702;DHT22;334;48.808;9.222;2023-02-08T00:44:56;2.70;1.00
702;DHT22;334;48.808;9.222;2023-02-08T00:46:00;2.60;1.00
702;DHT22;334;48.808;9.222;2023-02-08T00:47:01;2.60;1.00
702;DHT22;334;48.808;9.222;2023-02-08T00:48:03;2.80;1.00
702;DHT22;334;48.808;9.222;2023-02-08T00:49:05;2.60;1.00
702;DHT22;334;48.808;9.222;2023-02-08T00:50:08;2.60;1.00
702;DHT22;334;48.808;9.222;2023-02-08T00:51:13;2.60;1.00
702;DHT22;334;48.808;9.222;2023-02-08T00:52:18;2.60;1.00
702;DHT22;334;48.808;9.222;2023-02-08T00:53:20;2.80;1.00
702;DHT22;334;48.808;9.222;2023-02-08T00:54:21;2.70;1.00
702;DHT22;334;48.808;9.222;2023-02-08T00:55:24;2.60;1.00
702;DHT22;334;48.808;9.222;2023-02-08T00:56:26;2.60;1.00
702;DHT22;334;48.808;9.222;2023-02-08T00:57:28;2.60;1.00
702;DHT22;334;48.808;9.222;2023-02-08T00:58:32;2.50;1.00
702;DHT22;334;48.808;9.222;2023-02-08T00:59:35;2.50;1.00
702;DHT22;334;48.808;9.222;2023-02-08T01:00:37;2.50;1.00
702;DHT22;334;48.808;9.222;2023-02-08T01:01:40;2.50;1.00
702;DHT22;334;48.808;9.222;2023-02-08T01:02:43;2.50;1.00
702;DHT22;334;48.808;9.222;2023-02-08T01:03:45;2.50;1.00
702;DHT22;334;48.808;9.222;2023-02-08T01:04:48;2.50;1.00
702;DHT22;334;48.808;9.222;2023-02-08T01:05:50;2.50;1.00
702;DHT22;334;48.808;9.222;2023-02-08T01:06:53;2.10;1.00
702;DHT22;334;48.808;9.222;2023-02-08T01:07:55;2.60;1.00
702;DHT22;334;48.808;9.222;2023-02-08T01:08:58;2.20;1.00
702;DHT22;334;48.808;9.222;2023-02-08T01:10:00;2.50;1.00
702;DHT22;334;48.808;9.222;2023-02-08T01:11:14;2.40;1.00
702;DHT22;334;48.808;9.222;2023-02-08T01:12:16;2.50;1.00
702;DHT22;334;48.808;9.222;2023-02-08T01:13:22;2.50;1.00
702;DHT22;334;48.808;9.222;2023-02-08T01:14:24;2.50;1.00
702;DHT22;334;48.808;9.222;2023-02-08T01:15:26;2.40;1.00
702;DHT22;334;48.808;9.222;2023-02-08T01:16:31;2.40;1.00
702;DHT22;334;48.808;9.222;2023-02-08T01:17:33;2.40;1.00
702;DHT22;334;48.808;9.222;2023-02-08T01:18:35;2.40;1.00
702;DHT22;334;48.808;9.222;2023-02-08T01:19:38;2.50;1.00
702;DHT22;334;48.808;9.222;2023-02-08T01:20:43;2.40;1.00
702;DHT22;334;48.808;9.222;2023-02-08T01:22:01;2.40;1.00
702;DHT22;334;48.808;9.222;2023-02-08T01:23:03;2.10;1.00
702;DHT22;334;48.808;9.222;2023-02-08T01:24:05;2.40;1.00
702;DHT22;334;48.808;9.222;2023-02-08T01:25:08;2.40;1.00
702;DHT22;334;48.808;9.222;2023-02-08T01:26:11;2.40;1.00
702;DHT22;334;48.808;9.222;2023-02-08T01:27:14;2.60;1.00
702;DHT22;334;48.808;9.222;2023-02-08T01:28:16;2.00;1.00
702;DHT22;334;48.808;9.222;2023-02-08T01:29:18;2.40;1.00
702;DHT22;334;48.808;9.222;2023-02-08T01:30:20;2.40;1.00
702;DHT22;334;48.808;9.222;2023-02-08T01:31:25;2.30;1.00
702;DHT22;334;48.808;9.222;2023-02-08T01:32:29;2.00;1.00
702;DHT22;334;48.808;9.222;2023-02-08T01:33:31;2.20;1.00
702;DHT22;334;48.808;9.222;2023-02-08T01:34:33;2.40;1.00
702;DHT22;334;48.808;9.222;2023-02-08T01:35:34;2.50;1.00
702;DHT22;334;48.808;9.222;2023-02-08T01:36:37;2.40;1.00
702;DHT22;334;48.808;9.222;2023-02-08T01:37:39;2.40;1.00
702;DHT22;334;48.808;9.222;2023-02-08T01:38:42;2.70;1.00
702;DHT22;334;48.808;9.222;2023-02-08T01:39:44;2.40;1.00
702;DHT22;334;48.808;9.222;2023-02-08T01:40:46;2.40;1.00
702;DHT22;334;48.808;9.222;2023-02-08T01:41:48;1.90;1.00
702;DHT22;334;48.808;9.222;2023-02-08T01:42:50;2.30;1.00
702;DHT22;334;48.808;9.222;2023-02-08T01:46:17;2.40;1.00
702;DHT22;334;48.808;9.222;2023-02-08T01:47:19;2.30;1.00
702;DHT22;334;48.808;9.222;2023-02-08T01:48:36;2.40;1.00
702;DHT22;334;48.808;9.222;2023-02-08T01:49:38;2.10;1.00
702;DHT22;334;48.808;9.222;2023-02-08T01:50:49;1.90;1.00
702;DHT22;334;48.808;9.222;2023-02-08T01:52:03;2.40;1.00
702;DHT22;334;48.808;9.222;2023-02-08T01:53:06;2.40;1.00
702;DHT22;334;48.808;9.222;2023-02-08T01:54:10;2.30;1.00
702;DHT22;334;48.808;9.222;2023-02-08T01:55:16;2.40;1.00
702;DHT22;334;48.808;9.222;2023-02-08T01:56:36;2.30;1.00
702;DHT22;334;48.808;9.222;2023-02-08T01:57:38;2.40;1.00
702;DHT22;334;48.808;9.222;2023-02-08T01:58:50;2.40;1.00
702;DHT22;334;48.808;9.222;2023-02-08T02:00:03;2.20;1.00
702;DHT22;334;48.808;9.222;2023-02-08T02:01:06;2.20;1.00
702;DHT22;334;48.808;9.222;2023-02-08T02:02:11;2.30;1.00
702;DHT22;334;48.808;9.222;2023-02-08T02:03:14;2.20;1.00
702;DHT22;334;48.808;9.222;2023-02-08T02:04:16;2.20;1.00
702;DHT22;334;48.808;9.222;2023-02-08T02:05:31;2.20;1.00
702;DHT22;334;48.808;9.222;2023-02-08T02:06:38;2.20;1.00
702;DHT22;334;48.808;9.222;2023-02-08T02:07:40;2.20;1.00
702;DHT22;334;48.808;9.222;2023-02-08T02:08:52;2.30;1.00
702;DHT22;334;48.808;9.222;2023-02-08T02:10:13;2.20;1.00
702;DHT22;334;48.808;9.222;2023-02-08T02:11:16;2.20;1.00
702;DHT22;334;48.808;9.222;2023-02-08T02:12:20;2.20;1.00
702;DHT22;334;48.808;9.222;2023-02-08T02:13:25;2.10;1.00
702;DHT22;334;48.808;9.222;2023-02-08T02:14:28;2.00;1.00
702;DHT22;334;48.808;9.222;2023-02-08T02:15:30;2.00;1.00
702;DHT22;334;48.808;9.222;2023-02-08T02:16:32;2.10;1.00
702;DHT22;334;48.808;9.222;2023-02-08T02:17:35;2.10;1.00
702;DHT22;334;48.808;9.222;2023-02-08T02:18:37;1.70;1.00
702;DHT22;334;48.808;9.222;2023-02-08T02:19:49;1.70;1.00
702;DHT22;334;48.808;9.222;2023-02-08T02:32:49;1.50;1.00
702;DHT22;334;48.808;9.222;2023-02-08T02:41:55;1.50;1.00
702;DHT22;334;48.808;9.222;2023-02-08T02:43:29;1.50;1.00
702;DHT22;334;48.808;9.222;2023-02-08T02:49:04;1.40;1.00
702;DHT22;334;48.808;9.222;2023-02-08T02:50:42;1.60;1.00
702;DHT22;334;48.808;9.222;2023-02-08T02:52:07;1.60;1.00
702;DHT22;334;48.808;9.222;2023-02-08T02:54:42;1.50;1.00
702;DHT22;334;48.808;9.222;2023-02-08T02:55:49;1.30;1.00
702;DHT22;334;48.808;9.222;2023-02-08T02:56:55;1.40;1.00
702;DHT22;334;48.808;9.222;2023-02-08T02:58:01;1.40;1.00
702;DHT22;334;48.808;9.222;2023-02-08T02:59:06;1.40;1.00
702;DHT22;334;48.808;9.222;2023-02-08T03:00:11;1.60;1.00
702;DHT22;334;48.808;9.222;2023-02-08T03:01:21;1.40;1.00
702;DHT22;334;48.808;9.222;2023-02-08T03:02:27;1.30;1.00
702;DHT22;334;48.808;9.222;2023-02-08T03:03:31;1.30;1.00
702;DHT22;334;48.808;9.222;2023-02-08T03:05:36;1.30;1.00
702;DHT22;334;48.808;9.222;2023-02-08T03:06:56;1.30;1.00
702;DHT22;334;48.808;9.222;2023-02-08T03:08:11;1.50;1.00
702;DHT22;334;48.808;9.222;2023-02-08T03:09:45;1.40;1.00
702;DHT22;334;48.808;9.222;2023-02-08T03:11:13;1.30;1.00
702;DHT22;334;48.808;9.222;2023-02-08T03:18:09;1.40;1.00
702;DHT22;334;48.808;9.222;2023-02-08T03:20:46;1.30;1.00
702;DHT22;334;48.808;9.222;2023-02-08T03:22:12;1.20;1.00
702;DHT22;334;48.808;9.222;2023-02-08T03:23:31;1.30;1.00
702;DHT22;334;48.808;9.222;2023-02-08T03:25:06;1.50;1.00
702;DHT22;334;48.808;9.222;2023-02-08T03:26:19;1.30;1.00
702;DHT22;334;48.808;9.222;2023-02-08T03:27:32;1.30;1.00
702;DHT22;334;48.808;9.222;2023-02-08T03:28:49;1.30;1.00
702;DHT22;334;48.808;9.222;2023-02-08T03:30:21;1.40;1.00
702;DHT22;334;48.808;9.222;2023-02-08T03:31:36;1.50;1.00
702;DHT22;334;48.808;9.222;2023-02-08T03:33:02;1.40;1.00
702;DHT22;334;48.808;9.222;2023-02-08T03:34:10;1.40;1.00
702;DHT22;334;48.808;9.222;2023-02-08T03:35:33;1.20;1.00
702;DHT22;334;48.808;9.222;2023-02-08T03:38:27;1.30;1.00
702;DHT22;334;48.808;9.222;2023-02-08T03:39:30;1.40;1.00
702;DHT22;334;48.808;9.222;2023-02-08T03:40:40;1.30;1.00
702;DHT22;334;48.808;9.222;2023-02-08T03:41:45;1.20;1.00
702;DHT22;334;48.808;9.222;2023-02-08T03:42:49;1.20;1.00
702;DHT22;334;48.808;9.222;2023-02-08T03:44:04;1.20;1.00
702;DHT22;334;48.808;9.222;2023-02-08T03:45:17;1.30;1.00
702;DHT22;334;48.808;9.222;2023-02-08T03:46:24;1.60;1.00
702;DHT22;334;48.808;9.222;2023-02-08T03:47:31;1.30;1.00
702;DHT22;334;48.808;9.222;2023-02-08T03:48:35;1.50;1.00
702;DHT22;334;48.808;9.222;2023-02-08T03:49:40;1.40;1.00
702;DHT22;334;48.808;9.222;2023-02-08T03:50:47;1.30;1.00
702;DHT22;334;48.808;9.222;2023-02-08T03:51:51;1.20;1.00
702;DHT22;334;48.808;9.222;2023-02-08T03:52:54;1.30;1.00
702;DHT22;334;48.808;9.222;2023-02-08T03:53:57;1.60;1.00
702;DHT22;334;48.808;9.222;2023-02-08T03:55:09;1.50;1.00
702;DHT22;334;48.808;9.222;2023-02-08T03:58:04;1.40;1.00
702;DHT22;334;48.808;9.222;2023-02-08T03:59:12;1.40;1.00
702;DHT22;334;48.808;9.222;2023-02-08T04:00:17;1.40;1.00
702;DHT22;334;48.808;9.222;2023-02-08T04:01:49;1.20;1.00
702;DHT22;334;48.808;9.222;2023-02-08T04:02:54;1.40;1.00
702;DHT22;334;48.808;9.222;2023-02-08T04:03:58;1.20;1.00
702;DHT22;334;48.808;9.222;2023-02-08T04:05:04;1.50;1.00
702;DHT22;334;48.808;9.222;2023-02-08T04:06:06;1.40;1.00
702;DHT22;334;48.808;9.222;2023-02-08T04:07:08;1.30;1.00
702;DHT22;334;48.808;9.222;2023-02-08T04:08:10;1.30;1.00
702;DHT22;334;48.808;9.222;2023-02-08T04:09:13;1.40;1.00
702;DHT22;334;48.808;9.222;2023-02-08T04:10:15;1.40;1.00
702;DHT22;334;48.808;9.222;2023-02-08T04:11:17;1.30;1.00
702;DHT22;334;48.808;9.222;2023-02-08T04:12:19;1.20;1.00
702;DHT22;334;48.808;9.222;2023-02-08T04:13:21;1.50;1.00
702;DHT22;334;48.808;9.222;2023-02-08T04:14:23;1.40;1.00
702;DHT22;334;48.808;9.222;2023-02-08T04:15:24;1.40;1.00
702;DHT22;334;48.808;9.222;2023-02-08T04:16:27;1.20;1.00
702;DHT22;334;48.808;9.222;2023-02-08T04:17:29;1.10;1.00
702;DHT22;334;48.808;9.222;2023-02-08T04:18:31;1.20;1.00
702;DHT22;334;48.808;9.222;2023-02-08T04:19:33;1.20;1.00
702;DHT22;334;48.808;9.222;2023-02-08T04:20:35;1.30;1.00
702;DHT22;334;48.808;9.222;2023-02-08T04:21:36;1.30;1.00
702;DHT22;334;48.808;9.222;2023-02-08T04:22:38;1.20;1.00
702;DHT22;334;48.808;9.222;2023-02-08T04:23:40;1.30;1.00
702;DHT22;334;48.808;9.222;2023-02-08T04:24:42;1.40;1.00
702;DHT22;334;48.808;9.222;2023-02-08T04:25:44;1.20;1.00
702;DHT22;334;48.808;9.222;2023-02-08T04:26:46;1.40;1.00
702;DHT22;334;48.808;9.222;2023-02-08T04:27:48;1.10;1.00
702;DHT22;334;48.808;9.222;2023-02-08T04:28:50;1.30;1.00
702;DHT22;334;48.808;9.222;2023-02-08T04:29:54;1.10;1.00
702;DHT22;334;48.808;9.222;2023-02-08T04:30:55;1.20;1.00
702;DHT22;334;48.808;9.222;2023-02-08T04:31:58;1.20;1.00
702;DHT22;334;48.808;9.222;2023-02-08T04:33:00;1.20;1.00
702;DHT22;334;48.808;9.222;2023-02-08T04:34:02;1.20;1.00
702;DHT22;334;48.808;9.222;2023-02-08T04:35:04;1.40;1.00
702;DHT22;334;48.808;9.222;2023-02-08T04:36:06;1.40;1.00
702;DHT22;334;48.808;9.222;2023-02-08T04:37:08;1.20;1.00
702;DHT22;334;48.808;9.222;2023-02-08T04:38:11;1.30;1.00
702;DHT22;334;48.808;9.222;2023-02-08T04:39:13;1.10;1.00
702;DHT22;334;48.808;9.222;2023-02-08T04:40:15;1.30;1.00
702;DHT22;334;48.808;9.222;2023-02-08T04:41:18;1.50;1.00
702;DHT22;334;48.808;9.222;2023-02-08T04:42:19;1.10;1.00
702;DHT22;334;48.808;9.222;2023-02-08T04:43:21;1.20;1.00
702;DHT22;334;48.808;9.222;2023-02-08T04:44:23;1.30;1.00
702;DHT22;334;48.808;9.222;2023-02-08T04:45:25;1.30;1.00
702;DHT22;334;48.808;9.222;2023-02-08T04:46:27;1.30;1.00
702;DHT22;334;48.808;9.222;2023-02-08T04:47:29;1.10;1.00
702;DHT22;334;48.808;9.222;2023-02-08T04:48:31;1.20;1.00
702;DHT22;334;48.808;9.222;2023-02-08T04:49:33;1.30;1.00
702;DHT22;334;48.808;9.222;2023-02-08T04:50:35;1.10;1.00
702;DHT22;334;48.808;9.222;2023-02-08T04:51:36;1.40;1.00
702;DHT22;334;48.808;9.222;2023-02-08T04:52:40;0.90;1.00
702;DHT22;334;48.808;9.222;2023-02-08T04:53:42;1.30;1.00
702;DHT22;334;48.808;9.222;2023-02-08T04:54:44;0.90;1.00
702;DHT22;334;48.808;9.222;2023-02-08T04:55:46;1.20;1.00
702;DHT22;334;48.808;9.222;2023-02-08T04:56:48;1.30;1.00
702;DHT22;334;48.808;9.222;2023-02-08T04:57:50;1.40;1.00
702;DHT22;334;48.808;9.222;2023-02-08T04:58:53;1.40;1.00
702;DHT22;334;48.808;9.222;2023-02-08T04:59:54;1.20;1.00
702;DHT22;334;48.808;9.222;2023-02-08T05:00:56;1.10;1.00
702;DHT22;334;48.808;9.222;2023-02-08T05:01:58;1.30;1.00
702;DHT22;334;48.808;9.222;2023-02-08T05:03:00;1.20;1.00
702;DHT22;334;48.808;9.222;2023-02-08T05:04:02;1.40;1.00
702;DHT22;334;48.808;9.222;2023-02-08T05:05:04;1.20;1.00
702;DHT22;334;48.808;9.222;2023-02-08T05:06:06;1.40;1.00
702;DHT22;334;48.808;9.222;2023-02-08T05:07:08;1.40;1.00
702;DHT22;334;48.808;9.222;2023-02-08T05:08:11;1.20;1.00
702;DHT22;334;48.808;9.222;2023-02-08T05:09:12;1.20;1.00
702;DHT22;334;48.808;9.222;2023-02-08T05:10:15;1.20;1.00
702;DHT22;334;48.808;9.222;2023-02-08T05:11:21;1.30;1.00
702;DHT22;334;48.808;9.222;2023-02-08T05:12:23;1.10;1.00
702;DHT22;334;48.808;9.222;2023-02-08T05:13:25;1.30;1.00
702;DHT22;334;48.808;9.222;2023-02-08T05:14:27;1.10;1.00
702;DHT22;334;48.808;9.222;2023-02-08T05:15:29;1.30;1.00
702;DHT22;334;48.808;9.222;2023-02-08T05:16:31;1.10;1.00
702;DHT22;334;48.808;9.222;2023-02-08T05:17:33;1.30;1.00
702;DHT22;334;48.808;9.222;2023-02-08T05:18:35;1.10;1.00
702;DHT22;334;48.808;9.222;2023-02-08T05:19:37;1.10;1.00
702;DHT22;334;48.808;9.222;2023-02-08T05:20:38;1.00;1.00
702;DHT22;334;48.808;9.222;2023-02-08T05:21:55;1.10;1.00
702;DHT22;334;48.808;9.222;2023-02-08T05:22:56;1.10;1.00
702;DHT22;334;48.808;9.222;2023-02-08T05:23:58;1.40;1.00
702;DHT22;334;48.808;9.222;2023-02-08T05:25:00;1.20;1.00
702;DHT22;334;48.808;9.222;2023-02-08T05:26:09;1.10;1.00
702;DHT22;334;48.808;9.222;2023-02-08T05:27:11;1.00;1.00
702;DHT22;334;48.808;9.222;2023-02-08T05:28:13;1.20;1.00
702;DHT22;334;48.808;9.222;2023-02-08T05:29:15;1.10;1.00
702;DHT22;334;48.808;9.222;2023-02-08T05:30:17;0.80;1.00
702;DHT22;334;48.808;9.222;2023-02-08T05:31:22;1.00;1.00
702;DHT22;334;48.808;9.222;2023-02-08T05:32:24;1.20;1.00
702;DHT22;334;48.808;9.222;2023-02-08T05:33:26;1.00;1.00
702;DHT22;334;48.808;9.222;2023-02-08T05:34:28;1.00;1.00
702;DHT22;334;48.808;9.222;2023-02-08T05:35:30;0.90;1.00
702;DHT22;334;48.808;9.222;2023-02-08T05:36:31;1.00;1.00
702;DHT22;334;48.808;9.222;2023-02-08T05:37:33;1.00;1.00
702;DHT22;334;48.808;9.222;2023-02-08T05:38:35;1.10;1.00
702;DHT22;334;48.808;9.222;2023-02-08T05:39:37;1.20;1.00
702;DHT22;334;48.808;9.222;2023-02-08T05:40:39;0.80;1.00
702;DHT22;334;48.808;9.222;2023-02-08T05:41:41;1.00;1.00
702;DHT22;334;48.808;9.222;2023-02-08T05:42:45;1.00;1.00
702;DHT22;334;48.808;9.222;2023-02-08T05:43:48;1.20;1.00
702;DHT22;334;48.808;9.222;2023-02-08T05:44:50;0.90;1.00
702;DHT22;334;48.808;9.222;2023-02-08T05:45:54;0.90;1.00
702;DHT22;334;48.808;9.222;2023-02-08T05:46:55;1.00;1.00
702;DHT22;334;48.808;9.222;2023-02-08T05:47:57;0.50;1.00
702;DHT22;334;48.808;9.222;2023-02-08T05:48:59;0.90;1.00
702;DHT22;334;48.808;9.222;2023-02-08T05:50:05;1.00;1.00
702;DHT22;334;48.808;9.222;2023-02-08T05:51:08;0.90;1.00
702;DHT22;334;48.808;9.222;2023-02-08T05:52:10;1.00;1.00
702;DHT22;334;48.808;9.222;2023-02-08T05:53:12;1.00;1.00
702;DHT22;334;48.808;9.222;2023-02-08T05:54:14;1.10;1.00
702;DHT22;334;48.808;9.222;2023-02-08T05:55:17;0.90;1.00
702;DHT22;334;48.808;9.222;2023-02-08T05:56:20;0.80;1.00
702;DHT22;334;48.808;9.222;2023-02-08T05:57:23;1.00;1.00
702;DHT22;334;48.808;9.222;2023-02-08T05:58:25;0.90;1.00
702;DHT22;334;48.808;9.222;2023-02-08T05:59:27;1.00;1.00
702;DHT22;334;48.808;9.222;2023-02-08T06:00:29;0.90;1.00
702;DHT22;334;48.808;9.222;2023-02-08T06:01:34;1.10;1.00
702;DHT22;334;48.808;9.222;2023-02-08T06:02:36;0.90;1.00
702;DHT22;334;48.808;9.222;2023-02-08T06:03:39;1.00;1.00
702;DHT22;334;48.808;9.222;2023-02-08T06:04:41;0.80;1.00
702;DHT22;334;48.808;9.222;2023-02-08T06:05:43;0.50;1.00
702;DHT22;334;48.808;9.222;2023-02-08T06:06:44;0.80;1.00
702;DHT22;334;48.808;9.222;2023-02-08T06:07:47;0.90;1.00
702;DHT22;334;48.808;9.222;2023-02-08T06:08:49;0.90;1.00
702;DHT22;334;48.808;9.222;2023-02-08T06:09:51;0.90;1.00
702;DHT22;334;48.808;9.222;2023-02-08T06:10:53;0.80;1.00
702;DHT22;334;48.808;9.222;2023-02-08T06:11:54;0.80;1.00
702;DHT22;334;48.808;9.222;2023-02-08T06:12:57;0.90;1.00
702;DHT22;334;48.808;9.222;2023-02-08T06:14:01;0.70;1.00
702;DHT22;334;48.808;9.222;2023-02-08T06:15:03;0.80;1.00
702;DHT22;334;48.808;9.222;2023-02-08T06:16:05;0.80;1.00
702;DHT22;334;48.808;9.222;2023-02-08T06:17:08;0.70;1.00
702;DHT22;334;48.808;9.222;2023-02-08T06:18:11;0.70;1.00
702;DHT22;334;48.808;9.222;2023-02-08T06:19:15;0.50;1.00
702;DHT22;334;48.808;9.222;2023-02-08T06:20:17;0.40;1.00
702;DHT22;334;48.808;9.222;2023-02-08T06:21:44;0.40;1.00
702;DHT22;334;48.808;9.222;2023-02-08T06:22:47;0.50;1.00
702;DHT22;334;48.808;9.222;2023-02-08T06:23:49;0.60;1.00
702;DHT22;334;48.808;9.222;2023-02-08T06:24:51;0.40;1.00
702;DHT22;334;48.808;9.222;2023-02-08T06:25:53;0.40;1.00
702;DHT22;334;48.808;9.222;2023-02-08T06:26:57;0.30;1.00
702;DHT22;334;48.808;9.222;2023-02-08T06:27:59;0.30;1.00
702;DHT22;334;48.808;9.222;2023-02-08T06:29:01;0.40;1.00
702;DHT22;334;48.808;9.222;2023-02-08T06:30:03;0.30;1.00
702;DHT22;334;48.808;9.222;2023-02-08T06:31:07;0.30;1.00
702;DHT22;334;48.808;9.222;2023-02-08T06:32:09;0.40;1.00
702;DHT22;334;48.808;9.222;2023-02-08T06:33:12;0.20;1.00
702;DHT22;334;48.808;9.222;2023-02-08T06:34:16;0.30;1.00
702;DHT22;334;48.808;9.222;2023-02-08T06:35:18;0.30;1.00
702;DHT22;334;48.808;9.222;2023-02-08T06:36:19;0.50;1.00
702;DHT22;334;48.808;9.222;2023-02-08T06:37:21;0.30;1.00
702;DHT22;334;48.808;9.222;2023-02-08T06:38:23;0.50;1.00
702;DHT22;334;48.808;9.222;2023-02-08T06:39:25;0.70;1.00
702;DHT22;334;48.808;9.222;2023-02-08T06:40:27;0.50;1.00
702;DHT22;334;48.808;9.222;2023-02-08T06:41:28;0.50;1.00
702;DHT22;334;48.808;9.222;2023-02-08T06:42:30;0.40;1.00
702;DHT22;334;48.808;9.222;2023-02-08T06:43:32;0.50;1.00
702;DHT22;334;48.808;9.222;2023-02-08T06:44:34;0.70;1.00
702;DHT22;334;48.808;9.222;2023-02-08T06:45:36;0.50;1.00
702;DHT22;334;48.808;9.222;2023-02-08T06:46:37;0.50;1.00
702;DHT22;334;48.808;9.222;2023-02-08T06:47:39;0.40;1.00
702;DHT22;334;48.808;9.222;2023-02-08T06:48:41;0.50;1.00
702;DHT22;334;48.808;9.222;2023-02-08T06:49:43;0.40;1.00
702;DHT22;334;48.808;9.222;2023-02-08T06:50:44;0.40;1.00
702;DHT22;334;48.808;9.222;2023-02-08T06:51:46;0.70;1.00
702;DHT22;334;48.808;9.222;2023-02-08T06:52:48;0.60;1.00
702;DHT22;334;48.808;9.222;2023-02-08T06:53:51;0.40;1.00
702;DHT22;334;48.808;9.222;2023-02-08T06:54:52;0.70;1.00
702;DHT22;334;48.808;9.222;2023-02-08T06:55:54;0.60;1.00
702;DHT22;334;48.808;9.222;2023-02-08T06:56:56;0.50;1.00
702;DHT22;334;48.808;9.222;2023-02-08T06:57:58;0.70;1.00
702;DHT22;334;48.808;9.222;2023-02-08T06:59:00;0.70;1.00
702;DHT22;334;48.808;9.222;2023-02-08T07:00:03;0.50;1.00
702;DHT22;334;48.808;9.222;2023-02-08T07:01:05;0.60;1.00
702;DHT22;334;48.808;9.222;2023-02-08T07:02:12;0.80;1.00
702;DHT22;334;48.808;9.222;2023-02-08T07:03:15;0.70;1.00
702;DHT22;334;48.808;9.222;2023-02-08T07:04:18;0.60;1.00
702;DHT22;334;48.808;9.222;2023-02-08T07:05:20;0.80;1.00
702;DHT22;334;48.808;9.222;2023-02-08T07:06:21;0.70;1.00
702;DHT22;334;48.808;9.222;2023-02-08T07:07:24;0.70;1.00
702;DHT22;334;48.808;9.222;2023-02-08T07:08:29;0.70;1.00
702;DHT22;334;48.808;9.222;2023-02-08T07:09:32;0.70;1.00
702;DHT22;334;48.808;9.222;2023-02-08T07:10:37;0.70;1.00
702;DHT22;334;48.808;9.222;2023-02-08T07:11:41;0.90;1.00
702;DHT22;334;48.808;9.222;2023-02-08T07:12:45;0.80;1.00
702;DHT22;334;48.808;9.222;2023-02-08T07:13:48;1.00;1.00
702;DHT22;334;48.808;9.222;2023-02-08T07:14:51;0.80;1.00
702;DHT22;334;48.808;9.222;2023-02-08T07:15:52;0.50;1.00
702;DHT22;334;48.808;9.222;2023-02-08T07:16:54;0.90;1.00
702;DHT22;334;48.808;9.222;2023-02-08T07:17:57;0.90;1.00
702;DHT22;334;48.808;9.222;2023-02-08T07:18:58;0.70;1.00
702;DHT22;334;48.808;9.222;2023-02-08T07:20:01;0.70;1.00
702;DHT22;334;48.808;9.222;2023-02-08T07:21:34;0.70;1.00
702;DHT22;334;48.808;9.222;2023-02-08T07:22:41;0.70;1.00
702;DHT22;334;48.808;9.222;2023-02-08T07:23:44;0.80;1.00
702;DHT22;334;48.808;9.222;2023-02-08T07:24:46;0.80;1.00
702;DHT22;334;48.808;9.222;2023-02-08T07:26:03;0.90;1.00
702;DHT22;334;48.808;9.222;2023-02-08T07:27:08;1.00;1.00
702;DHT22;334;48.808;9.222;2023-02-08T07:28:10;0.90;1.00
702;DHT22;334;48.808;9.222;2023-02-08T07:29:15;0.80;1.00
702;DHT22;334;48.808;9.222;2023-02-08T07:30:17;1.00;1.00
702;DHT22;334;48.808;9.222;2023-02-08T07:31:19;0.80;1.00
702;DHT22;334;48.808;9.222;2023-02-08T07:32:21;0.80;1.00
702;DHT22;334;48.808;9.222;2023-02-08T07:33:24;0.80;1.00
702;DHT22;334;48.808;9.222;2023-02-08T07:34:28;0.70;1.00
702;DHT22;334;48.808;9.222;2023-02-08T07:35:30;0.80;1.00
702;DHT22;334;48.808;9.222;2023-02-08T07:36:32;0.70;1.00
702;DHT22;334;48.808;9.222;2023-02-08T07:37:36;0.70;1.00
702;DHT22;334;48.808;9.222;2023-02-08T07:38:38;0.70;1.00
702;DHT22;334;48.808;9.222;2023-02-08T07:39:39;0.90;1.00
702;DHT22;334;48.808;9.222;2023-02-08T07:40:41;0.80;1.00
702;DHT22;334;48.808;9.222;2023-02-08T07:41:43;0.60;1.00
702;DHT22;334;48.808;9.222;2023-02-08T07:42:45;0.70;1.00
702;DHT22;334;48.808;9.222;2023-02-08T07:43:47;0.80;1.00
702;DHT22;334;48.808;9.222;2023-02-08T07:44:49;0.80;1.00
702;DHT22;334;48.808;9.222;2023-02-08T07:45:52;0.90;1.00
702;DHT22;334;48.808;9.222;2023-02-08T07:46:54;0.80;1.00
702;DHT22;334;48.808;9.222;2023-02-08T07:47:56;0.80;1.00
702;DHT22;334;48.808;9.222;2023-02-08T07:48:58;0.90;1.00
702;DHT22;334;48.808;9.222;2023-02-08T07:50:00;0.90;1.00
702;DHT22;334;48.808;9.222;2023-02-08T07:51:02;0.90;1.00
702;DHT22;334;48.808;9.222;2023-02-08T07:52:04;1.10;1.00
702;DHT22;334;48.808;9.222;2023-02-08T07:53:06;0.90;1.00
702;DHT22;334;48.808;9.222;2023-02-08T07:54:08;0.90;1.00
702;DHT22;334;48.808;9.222;2023-02-08T07:55:09;1.10;1.00
702;DHT22;334;48.808;9.222;2023-02-08T07:56:12;1.10;1.00
702;DHT22;334;48.808;9.222;2023-02-08T07:57:14;1.10;1.00
702;DHT22;334;48.808;9.222;2023-02-08T07:58:21;1.10;1.00
702;DHT22;334;48.808;9.222;2023-02-08T07:59:24;1.00;1.00
702;DHT22;334;48.808;9.222;2023-02-08T08:00:26;1.10;1.00
702;DHT22;334;48.808;9.222;2023-02-08T08:01:28;1.20;1.00
702;DHT22;334;48.808;9.222;2023-02-08T08:02:30;1.10;1.00
702;DHT22;334;48.808;9.222;2023-02-08T08:03:32;1.00;1.00
702;DHT22;334;48.808;9.222;2023-02-08T08:04:34;1.20;1.00
702;DHT22;334;48.808;9.222;2023-02-08T08:05:40;1.30;1.00
702;DHT22;334;48.808;9.222;2023-02-08T08:06:42;1.30;1.00
702;DHT22;334;48.808;9.222;2023-02-08T08:07:44;1.30;1.00
702;DHT22;334;48.808;9.222;2023-02-08T08:08:47;1.40;1.00